sensor_id;sensor_type;location;lat;lon;timestamp;P1;durP1;ratioP1;P2;durP2;ratioP2
20095;SDS011;10207;50.942;6.900;2023-06-14T00:00:14;10.38;;;4.50;;
20095;SDS011;10207;50.942;6.900;2023-06-14T00:02:40;9.38;;;5.88;;
20095;SDS011;10207;50.942;6.900;2023-06-14T00:05:07;8.18;;;4.95;;
20095;SDS011;10207;50.942;6.900;2023-06-14T00:07:34;8.35;;;5.05;;
20095;SDS011;10207;50.942;6.900;2023-06-14T00:10:00;8.20;;;4.72;;
20095;SDS011;10207;50.942;6.900;2023-06-14T00:12:26;7.82;;;4.78;;
20095;SDS011;10207;50.942;6.900;2023-06-14T00:14:52;7.18;;;4.80;;
20095;SDS011;10207;50.942;6.900;2023-06-14T00:17:18;10.23;;;4.72;;
20095;SDS011;10207;50.942;6.900;2023-06-14T00:19:44;7.63;;;4.75;;
20095;SDS011;10207;50.942;6.900;2023-06-14T00:22:10;5.93;;;4.50;;
20095;SDS011;10207;50.942;6.900;2023-06-14T00:24:36;9.02;;;5.15;;
20095;SDS011;10207;50.942;6.900;2023-06-14T00:27:02;7.03;;;4.30;;
20095;SDS011;10207;50.942;6.900;2023-06-14T00:29:29;6.30;;;4.82;;
20095;SDS011;10207;50.942;6.900;2023-06-14T00:31:55;6.07;;;4.50;;
20095;SDS011;10207;50.942;6.900;2023-06-14T00:34:21;8.18;;;4.55;;
20095;SDS011;10207;50.942;6.900;2023-06-14T00:36:47;9.00;;;4.45;;
20095;SDS011;10207;50.942;6.900;2023-06-14T00:39:14;6.78;;;4.38;;
20095;SDS011;10207;50.942;6.900;2023-06-14T00:41:39;7.40;;;4.57;;
20095;SDS011;10207;50.942;6.900;2023-06-14T00:44:05;6.47;;;4.47;;
20095;SDS011;10207;50.942;6.900;2023-06-14T00:46:32;9.52;;;4.53;;
20095;SDS011;10207;50.942;6.900;2023-06-14T00:48:58;6.40;;;4.30;;
20095;SDS011;10207;50.942;6.900;2023-06-14T00:51:26;6.60;;;4.25;;
20095;SDS011;10207;50.942;6.900;2023-06-14T00:53:53;5.95;;;4.13;;
20095;SDS011;10207;50.942;6.900;2023-06-14T00:56:19;9.63;;;4.32;;
20095;SDS011;10207;50.942;6.900;2023-06-14T00:58:50;7.43;;;4.68;;
20095;SDS011;10207;50.942;6.900;2023-06-14T01:01:16;10.27;;;4.88;;
20095;SDS011;10207;50.942;6.900;2023-06-14T01:03:42;7.63;;;4.65;;
20095;SDS011;10207;50.942;6.900;2023-06-14T01:06:18;10.13;;;4.85;;
20095;SDS011;10207;50.942;6.900;2023-06-14T01:09:15;7.05;;;4.75;;
20095;SDS011;10207;50.942;6.900;2023-06-14T01:11:45;7.18;;;5.18;;
20095;SDS011;10207;50.942;6.900;2023-06-14T01:14:13;9.32;;;5.38;;
20095;SDS011;10207;50.942;6.900;2023-06-14T01:16:40;9.05;;;5.82;;
20095;SDS011;10207;50.942;6.900;2023-06-14T01:19:07;7.93;;;5.25;;
20095;SDS011;10207;50.942;6.900;2023-06-14T01:21:40;10.88;;;5.32;;
20095;SDS011;10207;50.942;6.900;2023-06-14T01:24:10;8.82;;;5.47;;
20095;SDS011;10207;50.942;6.900;2023-06-14T01:26:36;8.43;;;5.10;;
20095;SDS011;10207;50.942;6.900;2023-06-14T01:29:03;7.32;;;5.22;;
20095;SDS011;10207;50.942;6.900;2023-06-14T01:31:29;7.70;;;5.15;;
20095;SDS011;10207;50.942;6.900;2023-06-14T01:34:05;9.27;;;5.15;;
20095;SDS011;10207;50.942;6.900;2023-06-14T01:36:31;7.70;;;5.15;;
20095;SDS011;10207;50.942;6.900;2023-06-14T01:38:58;6.95;;;4.97;;
20095;SDS011;10207;50.942;6.900;2023-06-14T01:41:26;8.52;;;4.95;;
20095;SDS011;10207;50.942;6.900;2023-06-14T01:43:52;10.40;;;5.72;;
20095;SDS011;10207;50.942;6.900;2023-06-14T01:46:20;11.35;;;5.07;;
20095;SDS011;10207;50.942;6.900;2023-06-14T01:48:46;8.23;;;5.93;;
20095;SDS011;10207;50.942;6.900;2023-06-14T01:51:12;9.30;;;5.20;;
20095;SDS011;10207;50.942;6.900;2023-06-14T01:53:38;9.82;;;5.68;;
20095;SDS011;10207;50.942;6.900;2023-06-14T01:56:04;9.15;;;4.95;;
20095;SDS011;10207;50.942;6.900;2023-06-14T01:58:31;8.85;;;5.10;;
20095;SDS011;10207;50.942;6.900;2023-06-14T02:00:57;8.48;;;5.65;;
20095;SDS011;10207;50.942;6.900;2023-06-14T02:03:23;10.77;;;4.65;;
20095;SDS011;10207;50.942;6.900;2023-06-14T02:05:52;8.45;;;5.18;;
20095;SDS011;10207;50.942;6.900;2023-06-14T02:08:18;8.35;;;4.45;;
20095;SDS011;10207;50.942;6.900;2023-06-14T02:10:43;6.20;;;4.88;;
20095;SDS011;10207;50.942;6.900;2023-06-14T02:13:10;7.35;;;5.20;;
20095;SDS011;10207;50.942;6.900;2023-06-14T02:15:36;8.70;;;5.30;;
20095;SDS011;10207;50.942;6.900;2023-06-14T02:18:02;7.60;;;4.82;;
20095;SDS011;10207;50.942;6.900;2023-06-14T02:20:28;7.32;;;4.88;;
20095;SDS011;10207;50.942;6.900;2023-06-14T02:22:56;8.32;;;5.30;;
20095;SDS011;10207;50.942;6.900;2023-06-14T02:25:22;11.05;;;4.93;;
20095;SDS011;10207;50.942;6.900;2023-06-14T02:27:48;8.85;;;5.10;;
20095;SDS011;10207;50.942;6.900;2023-06-14T02:30:14;7.30;;;4.72;;
20095;SDS011;10207;50.942;6.900;2023-06-14T02:32:41;7.30;;;5.03;;
20095;SDS011;10207;50.942;6.900;2023-06-14T02:35:08;6.88;;;4.70;;
20095;SDS011;10207;50.942;6.900;2023-06-14T02:37:35;8.35;;;4.45;;
20095;SDS011;10207;50.942;6.900;2023-06-14T02:40:00;7.10;;;4.90;;
20095;SDS011;10207;50.942;6.900;2023-06-14T02:42:26;8.02;;;5.07;;
20095;SDS011;10207;50.942;6.900;2023-06-14T02:44:52;7.20;;;4.93;;
20095;SDS011;10207;50.942;6.900;2023-06-14T02:47:20;9.73;;;5.75;;
20095;SDS011;10207;50.942;6.900;2023-06-14T02:49:46;7.13;;;4.93;;
20095;SDS011;10207;50.942;6.900;2023-06-14T02:52:14;6.05;;;4.88;;
20095;SDS011;10207;50.942;6.900;2023-06-14T02:54:40;10.35;;;5.28;;
20095;SDS011;10207;50.942;6.900;2023-06-14T02:57:07;9.57;;;5.45;;
20095;SDS011;10207;50.942;6.900;2023-06-14T02:59:34;8.23;;;4.93;;
20095;SDS011;10207;50.942;6.900;2023-06-14T03:02:01;9.00;;;5.00;;
20095;SDS011;10207;50.942;6.900;2023-06-14T03:04:29;7.85;;;5.03;;
20095;SDS011;10207;50.942;6.900;2023-06-14T03:07:03;7.95;;;4.70;;
20095;SDS011;10207;50.942;6.900;2023-06-14T03:09:38;7.80;;;4.80;;
20095;SDS011;10207;50.942;6.900;2023-06-14T03:12:05;7.60;;;5.25;;
20095;SDS011;10207;50.942;6.900;2023-06-14T03:14:33;8.43;;;5.22;;
20095;SDS011;10207;50.942;6.900;2023-06-14T03:16:59;7.22;;;4.97;;
20095;SDS011;10207;50.942;6.900;2023-06-14T03:19:28;8.90;;;5.22;;
20095;SDS011;10207;50.942;6.900;2023-06-14T03:21:54;7.97;;;5.07;;
20095;SDS011;10207;50.942;6.900;2023-06-14T03:24:24;9.57;;;5.05;;
20095;SDS011;10207;50.942;6.900;2023-06-14T03:26:50;5.95;;;4.63;;
20095;SDS011;10207;50.942;6.900;2023-06-14T03:29:16;11.57;;;5.60;;
20095;SDS011;10207;50.942;6.900;2023-06-14T03:31:56;6.63;;;5.65;;
20095;SDS011;10207;50.942;6.900;2023-06-14T03:34:22;8.05;;;5.18;;
20095;SDS011;10207;50.942;6.900;2023-06-14T03:36:49;9.32;;;6.40;;
20095;SDS011;10207;50.942;6.900;2023-06-14T03:39:15;8.23;;;5.18;;
20095;SDS011;10207;50.942;6.900;2023-06-14T03:41:41;8.10;;;4.68;;
20095;SDS011;10207;50.942;6.900;2023-06-14T03:44:07;10.13;;;5.30;;
20095;SDS011;10207;50.942;6.900;2023-06-14T03:46:34;8.00;;;5.50;;
20095;SDS011;10207;50.942;6.900;2023-06-14T03:49:00;8.05;;;5.38;;
20095;SDS011;10207;50.942;6.900;2023-06-14T03:51:27;9.73;;;6.43;;
20095;SDS011;10207;50.942;6.900;2023-06-14T03:53:54;9.80;;;6.22;;
20095;SDS011;10207;50.942;6.900;2023-06-14T03:56:21;8.05;;;5.38;;
20095;SDS011;10207;50.942;6.900;2023-06-14T03:58:47;8.40;;;5.97;;
20095;SDS011;10207;50.942;6.900;2023-06-14T04:01:13;11.43;;;5.78;;
20095;SDS011;10207;50.942;6.900;2023-06-14T04:03:40;9.82;;;5.30;;
20095;SDS011;10207;50.942;6.900;2023-06-14T04:06:06;9.85;;;5.72;;
20095;SDS011;10207;50.942;6.900;2023-06-14T04:08:32;13.88;;;5.78;;
20095;SDS011;10207;50.942;6.900;2023-06-14T04:10:58;8.35;;;5.57;;
20095;SDS011;10207;50.942;6.900;2023-06-14T04:13:24;8.43;;;5.35;;
20095;SDS011;10207;50.942;6.900;2023-06-14T04:15:50;9.48;;;5.72;;
20095;SDS011;10207;50.942;6.900;2023-06-14T04:18:22;8.77;;;5.15;;
20095;SDS011;10207;50.942;6.900;2023-06-14T04:20:49;8.60;;;5.10;;
20095;SDS011;10207;50.942;6.900;2023-06-14T04:23:17;12.27;;;6.18;;
20095;SDS011;10207;50.942;6.900;2023-06-14T04:25:51;7.80;;;4.72;;
20095;SDS011;10207;50.942;6.900;2023-06-14T04:28:17;10.38;;;6.00;;
20095;SDS011;10207;50.942;6.900;2023-06-14T04:30:44;9.85;;;6.40;;
20095;SDS011;10207;50.942;6.900;2023-06-14T04:33:10;10.38;;;5.38;;
20095;SDS011;10207;50.942;6.900;2023-06-14T04:35:37;14.57;;;6.53;;
20095;SDS011;10207;50.942;6.900;2023-06-14T04:38:04;9.35;;;5.20;;
20095;SDS011;10207;50.942;6.900;2023-06-14T04:40:32;9.93;;;6.05;;
20095;SDS011;10207;50.942;6.900;2023-06-14T04:43:00;11.05;;;4.95;;
20095;SDS011;10207;50.942;6.900;2023-06-14T04:45:27;15.65;;;6.10;;
20095;SDS011;10207;50.942;6.900;2023-06-14T04:48:00;8.65;;;5.00;;
20095;SDS011;10207;50.942;6.900;2023-06-14T04:50:27;8.07;;;4.88;;
20095;SDS011;10207;50.942;6.900;2023-06-14T04:52:55;11.73;;;5.10;;
20095;SDS011;10207;50.942;6.900;2023-06-14T04:55:22;7.40;;;4.80;;
20095;SDS011;10207;50.942;6.900;2023-06-14T04:57:49;9.13;;;4.43;;
20095;SDS011;10207;50.942;6.900;2023-06-14T05:00:19;11.15;;;5.05;;
20095;SDS011;10207;50.942;6.900;2023-06-14T05:02:45;8.27;;;3.53;;
20095;SDS011;10207;50.942;6.900;2023-06-14T05:05:12;7.13;;;3.08;;
20095;SDS011;10207;50.942;6.900;2023-06-14T05:07:38;6.03;;;3.42;;
20095;SDS011;10207;50.942;6.900;2023-06-14T05:10:05;9.48;;;3.58;;
20095;SDS011;10207;50.942;6.900;2023-06-14T05:12:31;5.18;;;3.20;;
20095;SDS011;10207;50.942;6.900;2023-06-14T05:14:58;7.90;;;3.65;;
20095;SDS011;10207;50.942;6.900;2023-06-14T05:17:24;5.18;;;3.38;;
20095;SDS011;10207;50.942;6.900;2023-06-14T05:19:53;10.38;;;3.80;;
20095;SDS011;10207;50.942;6.900;2023-06-14T05:22:21;5.43;;;3.20;;
20095;SDS011;10207;50.942;6.900;2023-06-14T05:24:47;6.45;;;3.20;;
20095;SDS011;10207;50.942;6.900;2023-06-14T05:27:13;6.07;;;3.38;;
20095;SDS011;10207;50.942;6.900;2023-06-14T05:29:40;8.32;;;3.08;;
20095;SDS011;10207;50.942;6.900;2023-06-14T05:32:06;6.07;;;3.10;;
20095;SDS011;10207;50.942;6.900;2023-06-14T05:34:32;6.10;;;3.22;;
20095;SDS011;10207;50.942;6.900;2023-06-14T05:36:58;10.68;;;3.42;;
20095;SDS011;10207;50.942;6.900;2023-06-14T05:39:24;7.22;;;3.17;;
20095;SDS011;10207;50.942;6.900;2023-06-14T05:41:50;11.18;;;3.25;;
20095;SDS011;10207;50.942;6.900;2023-06-14T05:44:16;6.35;;;3.00;;
20095;SDS011;10207;50.942;6.900;2023-06-14T05:46:43;6.20;;;2.55;;
20095;SDS011;10207;50.942;6.900;2023-06-14T05:49:09;6.70;;;2.80;;
20095;SDS011;10207;50.942;6.900;2023-06-14T05:51:35;12.68;;;3.35;;
20095;SDS011;10207;50.942;6.900;2023-06-14T05:54:01;10.85;;;3.38;;
20095;SDS011;10207;50.942;6.900;2023-06-14T05:56:27;4.38;;;2.67;;
20095;SDS011;10207;50.942;6.900;2023-06-14T05:58:52;3.85;;;2.42;;
20095;SDS011;10207;50.942;6.900;2023-06-14T06:01:19;7.82;;;2.80;;
20095;SDS011;10207;50.942;6.900;2023-06-14T06:03:45;7.70;;;2.85;;
20095;SDS011;10207;50.942;6.900;2023-06-14T06:06:12;9.05;;;2.75;;
20095;SDS011;10207;50.942;6.900;2023-06-14T06:08:38;6.10;;;2.85;;
20095;SDS011;10207;50.942;6.900;2023-06-14T06:11:04;10.02;;;3.10;;
20095;SDS011;10207;50.942;6.900;2023-06-14T06:13:30;4.32;;;2.55;;
20095;SDS011;10207;50.942;6.900;2023-06-14T06:15:56;6.05;;;2.90;;
20095;SDS011;10207;50.942;6.900;2023-06-14T06:18:22;7.15;;;3.22;;
20095;SDS011;10207;50.942;6.900;2023-06-14T06:20:48;4.60;;;2.28;;
20095;SDS011;10207;50.942;6.900;2023-06-14T06:23:14;7.28;;;3.13;;
20095;SDS011;10207;50.942;6.900;2023-06-14T06:25:40;5.45;;;2.63;;
20095;SDS011;10207;50.942;6.900;2023-06-14T06:28:06;9.85;;;3.00;;
20095;SDS011;10207;50.942;6.900;2023-06-14T06:30:32;5.68;;;2.08;;
20095;SDS011;10207;50.942;6.900;2023-06-14T06:32:58;10.98;;;2.50;;
20095;SDS011;10207;50.942;6.900;2023-06-14T06:35:24;7.03;;;2.53;;
20095;SDS011;10207;50.942;6.900;2023-06-14T06:37:50;11.60;;;3.00;;
20095;SDS011;10207;50.942;6.900;2023-06-14T06:40:16;12.00;;;4.63;;
20095;SDS011;10207;50.942;6.900;2023-06-14T06:42:42;8.63;;;2.70;;
20095;SDS011;10207;50.942;6.900;2023-06-14T06:45:11;8.52;;;3.53;;
20095;SDS011;10207;50.942;6.900;2023-06-14T06:47:37;8.60;;;3.10;;
20095;SDS011;10207;50.942;6.900;2023-06-14T06:50:03;6.97;;;2.88;;
20095;SDS011;10207;50.942;6.900;2023-06-14T06:52:30;4.28;;;2.40;;
20095;SDS011;10207;50.942;6.900;2023-06-14T06:54:56;6.63;;;2.42;;
20095;SDS011;10207;50.942;6.900;2023-06-14T06:57:23;9.20;;;2.28;;
20095;SDS011;10207;50.942;6.900;2023-06-14T06:59:49;7.07;;;2.22;;
20095;SDS011;10207;50.942;6.900;2023-06-14T07:02:15;5.75;;;2.47;;
20095;SDS011;10207;50.942;6.900;2023-06-14T07:04:42;4.45;;;2.15;;
20095;SDS011;10207;50.942;6.900;2023-06-14T07:07:08;8.48;;;2.58;;
20095;SDS011;10207;50.942;6.900;2023-06-14T07:09:35;3.50;;;2.20;;
20095;SDS011;10207;50.942;6.900;2023-06-14T07:12:02;5.65;;;2.53;;
20095;SDS011;10207;50.942;6.900;2023-06-14T07:14:27;3.90;;;2.53;;
20095;SDS011;10207;50.942;6.900;2023-06-14T07:16:54;6.22;;;2.50;;
20095;SDS011;10207;50.942;6.900;2023-06-14T07:19:20;7.80;;;2.42;;
20095;SDS011;10207;50.942;6.900;2023-06-14T07:21:46;4.95;;;2.22;;
20095;SDS011;10207;50.942;6.900;2023-06-14T07:24:13;3.38;;;2.05;;
20095;SDS011;10207;50.942;6.900;2023-06-14T07:26:39;8.75;;;2.60;;
20095;SDS011;10207;50.942;6.900;2023-06-14T07:29:05;5.18;;;2.20;;
20095;SDS011;10207;50.942;6.900;2023-06-14T07:31:31;5.88;;;2.25;;
20095;SDS011;10207;50.942;6.900;2023-06-14T07:33:57;3.35;;;2.30;;
20095;SDS011;10207;50.942;6.900;2023-06-14T07:36:23;4.80;;;2.10;;
20095;SDS011;10207;50.942;6.900;2023-06-14T07:38:49;6.80;;;2.70;;
20095;SDS011;10207;50.942;6.900;2023-06-14T07:41:15;4.03;;;2.28;;
20095;SDS011;10207;50.942;6.900;2023-06-14T07:43:41;4.30;;;2.35;;
20095;SDS011;10207;50.942;6.900;2023-06-14T07:46:07;6.50;;;2.42;;
20095;SDS011;10207;50.942;6.900;2023-06-14T07:48:34;3.50;;;2.33;;
20095;SDS011;10207;50.942;6.900;2023-06-14T07:51:01;3.92;;;1.60;;
20095;SDS011;10207;50.942;6.900;2023-06-14T07:53:27;4.22;;;1.80;;
20095;SDS011;10207;50.942;6.900;2023-06-14T07:55:53;4.93;;;1.70;;
20095;SDS011;10207;50.942;6.900;2023-06-14T07:58:19;2.95;;;1.70;;
20095;SDS011;10207;50.942;6.900;2023-06-14T08:00:45;7.93;;;1.98;;
20095;SDS011;10207;50.942;6.900;2023-06-14T08:03:12;2.47;;;1.63;;
20095;SDS011;10207;50.942;6.900;2023-06-14T08:05:38;4.90;;;1.73;;
20095;SDS011;10207;50.942;6.900;2023-06-14T08:08:04;5.97;;;1.58;;
20095;SDS011;10207;50.942;6.900;2023-06-14T08:10:31;4.90;;;1.70;;
20095;SDS011;10207;50.942;6.900;2023-06-14T08:12:57;4.50;;;1.90;;
20095;SDS011;10207;50.942;6.900;2023-06-14T08:15:23;7.13;;;1.60;;
20095;SDS011;10207;50.942;6.900;2023-06-14T08:17:49;4.72;;;1.50;;
20095;SDS011;10207;50.942;6.900;2023-06-14T08:20:16;3.83;;;1.42;;
20095;SDS011;10207;50.942;6.900;2023-06-14T08:22:42;4.32;;;1.30;;
20095;SDS011;10207;50.942;6.900;2023-06-14T08:25:08;2.03;;;1.73;;
20095;SDS011;10207;50.942;6.900;2023-06-14T08:27:35;4.88;;;1.40;;
20095;SDS011;10207;50.942;6.900;2023-06-14T08:30:01;2.75;;;1.13;;
20095;SDS011;10207;50.942;6.900;2023-06-14T08:32:29;2.45;;;1.00;;
20095;SDS011;10207;50.942;6.900;2023-06-14T08:34:55;3.95;;;1.20;;
20095;SDS011;10207;50.942;6.900;2023-06-14T08:37:21;2.78;;;1.15;;
20095;SDS011;10207;50.942;6.900;2023-06-14T08:39:47;1.90;;;1.40;;
20095;SDS011;10207;50.942;6.900;2023-06-14T08:42:14;2.70;;;1.20;;
20095;SDS011;10207;50.942;6.900;2023-06-14T08:44:40;4.90;;;1.20;;
20095;SDS011;10207;50.942;6.900;2023-06-14T08:47:07;5.32;;;1.52;;
20095;SDS011;10207;50.942;6.900;2023-06-14T08:49:33;3.35;;;1.73;;
20095;SDS011;10207;50.942;6.900;2023-06-14T08:52:01;3.67;;;1.00;;
20095;SDS011;10207;50.942;6.900;2023-06-14T08:54:28;5.75;;;1.30;;
20095;SDS011;10207;50.942;6.900;2023-06-14T08:56:58;4.47;;;1.52;;
20095;SDS011;10207;50.942;6.900;2023-06-14T08:59:27;3.80;;;1.27;;
20095;SDS011;10207;50.942;6.900;2023-06-14T09:01:54;2.85;;;1.40;;
20095;SDS011;10207;50.942;6.900;2023-06-14T09:04:20;2.33;;;1.33;;
20095;SDS011;10207;50.942;6.900;2023-06-14T09:06:47;2.63;;;1.30;;
20095;SDS011;10207;50.942;6.900;2023-06-14T09:09:19;3.95;;;1.30;;
20095;SDS011;10207;50.942;6.900;2023-06-14T09:11:45;2.17;;;1.30;;
20095;SDS011;10207;50.942;6.900;2023-06-14T09:14:11;3.20;;;1.50;;
20095;SDS011;10207;50.942;6.900;2023-06-14T09:16:38;2.85;;;1.23;;
20095;SDS011;10207;50.942;6.900;2023-06-14T09:19:04;3.28;;;1.30;;
20095;SDS011;10207;50.942;6.900;2023-06-14T09:21:31;2.05;;;1.25;;
20095;SDS011;10207;50.942;6.900;2023-06-14T09:23:59;2.78;;;1.13;;
20095;SDS011;10207;50.942;6.900;2023-06-14T09:26:25;1.70;;;1.13;;
20095;SDS011;10207;50.942;6.900;2023-06-14T09:28:53;2.35;;;1.20;;
20095;SDS011;10207;50.942;6.900;2023-06-14T09:31:20;1.90;;;1.27;;
20095;SDS011;10207;50.942;6.900;2023-06-14T09:33:48;1.95;;;1.23;;
20095;SDS011;10207;50.942;6.900;2023-06-14T09:36:15;2.15;;;1.13;;
20095;SDS011;10207;50.942;6.900;2023-06-14T09:38:42;2.10;;;1.23;;
20095;SDS011;10207;50.942;6.900;2023-06-14T09:41:08;2.92;;;1.95;;
20095;SDS011;10207;50.942;6.900;2023-06-14T09:43:34;3.25;;;1.20;;
20095;SDS011;10207;50.942;6.900;2023-06-14T09:46:00;3.42;;;1.58;;
20095;SDS011;10207;50.942;6.900;2023-06-14T09:48:26;3.20;;;1.33;;
20095;SDS011;10207;50.942;6.900;2023-06-14T09:50:52;3.63;;;1.35;;
20095;SDS011;10207;50.942;6.900;2023-06-14T09:53:21;2.75;;;1.17;;
20095;SDS011;10207;50.942;6.900;2023-06-14T09:55:48;2.00;;;1.30;;
20095;SDS011;10207;50.942;6.900;2023-06-14T09:58:15;3.85;;;1.20;;
20095;SDS011;10207;50.942;6.900;2023-06-14T10:00:42;4.50;;;1.90;;
20095;SDS011;10207;50.942;6.900;2023-06-14T10:03:11;4.20;;;1.27;;
20095;SDS011;10207;50.942;6.900;2023-06-14T10:05:37;3.33;;;1.50;;
20095;SDS011;10207;50.942;6.900;2023-06-14T10:08:07;2.00;;;1.08;;
20095;SDS011;10207;50.942;6.900;2023-06-14T10:10:34;4.68;;;1.27;;
20095;SDS011;10207;50.942;6.900;2023-06-14T10:13:00;5.38;;;1.42;;
20095;SDS011;10207;50.942;6.900;2023-06-14T10:15:41;3.17;;;1.25;;
20095;SDS011;10207;50.942;6.900;2023-06-14T10:18:11;2.08;;;1.52;;
20095;SDS011;10207;50.942;6.900;2023-06-14T10:23:25;2.08;;;1.48;;
20095;SDS011;10207;50.942;6.900;2023-06-14T10:25:58;3.25;;;1.73;;
20095;SDS011;10207;50.942;6.900;2023-06-14T10:28:26;5.43;;;1.70;;
20095;SDS011;10207;50.942;6.900;2023-06-14T10:31:10;4.60;;;1.60;;
20095;SDS011;10207;50.942;6.900;2023-06-14T10:33:55;2.15;;;1.30;;
20095;SDS011;10207;50.942;6.900;2023-06-14T10:41:24;5.72;;;1.75;;
20095;SDS011;10207;50.942;6.900;2023-06-14T10:43:51;2.17;;;1.10;;
20095;SDS011;10207;50.942;6.900;2023-06-14T10:46:18;5.03;;;1.65;;
20095;SDS011;10207;50.942;6.900;2023-06-14T10:48:44;4.88;;;1.38;;
20095;SDS011;10207;50.942;6.900;2023-06-14T10:51:17;2.10;;;1.10;;
20095;SDS011;10207;50.942;6.900;2023-06-14T10:53:49;1.48;;;1.17;;
20095;SDS011;10207;50.942;6.900;2023-06-14T10:56:30;1.50;;;1.17;;
20095;SDS011;10207;50.942;6.900;2023-06-14T10:58:56;3.97;;;1.30;;
20095;SDS011;10207;50.942;6.900;2023-06-14T11:04:15;3.58;;;1.33;;
20095;SDS011;10207;50.942;6.900;2023-06-14T11:06:50;3.17;;;1.50;;
20095;SDS011;10207;50.942;6.900;2023-06-14T11:12:02;2.05;;;1.40;;
20095;SDS011;10207;50.942;6.900;2023-06-14T11:14:31;1.95;;;1.13;;
20095;SDS011;10207;50.942;6.900;2023-06-14T11:16:57;1.65;;;1.30;;
20095;SDS011;10207;50.942;6.900;2023-06-14T11:19:23;2.33;;;1.30;;
20095;SDS011;10207;50.942;6.900;2023-06-14T11:21:50;2.90;;;1.55;;
20095;SDS011;10207;50.942;6.900;2023-06-14T11:24:16;2.92;;;1.35;;
20095;SDS011;10207;50.942;6.900;2023-06-14T11:26:42;1.38;;;1.10;;
20095;SDS011;10207;50.942;6.900;2023-06-14T11:29:08;3.58;;;1.35;;
20095;SDS011;10207;50.942;6.900;2023-06-14T11:31:34;3.33;;;1.15;;
20095;SDS011;10207;50.942;6.900;2023-06-14T11:34:00;3.00;;;1.55;;
20095;SDS011;10207;50.942;6.900;2023-06-14T11:36:27;3.72;;;1.30;;
20095;SDS011;10207;50.942;6.900;2023-06-14T11:39:00;5.22;;;1.30;;
20095;SDS011;10207;50.942;6.900;2023-06-14T11:41:32;3.20;;;1.40;;
20095;SDS011;10207;50.942;6.900;2023-06-14T11:43:57;5.22;;;1.50;;
20095;SDS011;10207;50.942;6.900;2023-06-14T11:46:25;4.43;;;1.42;;
20095;SDS011;10207;50.942;6.900;2023-06-14T11:48:51;3.83;;;1.50;;
20095;SDS011;10207;50.942;6.900;2023-06-14T11:51:18;5.78;;;1.50;;
20095;SDS011;10207;50.942;6.900;2023-06-14T11:53:44;3.13;;;1.23;;
20095;SDS011;10207;50.942;6.900;2023-06-14T11:56:10;4.82;;;1.42;;
20095;SDS011;10207;50.942;6.900;2023-06-14T11:58:36;3.03;;;1.40;;
20095;SDS011;10207;50.942;6.900;2023-06-14T12:01:03;3.20;;;1.50;;
20095;SDS011;10207;50.942;6.900;2023-06-14T12:03:29;5.85;;;1.67;;
20095;SDS011;10207;50.942;6.900;2023-06-14T12:06:29;2.20;;;1.20;;
20095;SDS011;10207;50.942;6.900;2023-06-14T12:08:48;2.55;;;1.30;;
20095;SDS011;10207;50.942;6.900;2023-06-14T12:11:16;2.95;;;1.20;;
20095;SDS011;10207;50.942;6.900;2023-06-14T12:13:42;1.58;;;1.15;;
20095;SDS011;10207;50.942;6.900;2023-06-14T12:16:12;2.15;;;1.42;;
20095;SDS011;10207;50.942;6.900;2023-06-14T12:18:38;6.05;;;1.50;;
20095;SDS011;10207;50.942;6.900;2023-06-14T12:21:08;5.68;;;1.27;;
20095;SDS011;10207;50.942;6.900;2023-06-14T12:23:46;3.78;;;1.52;;
20095;SDS011;10207;50.942;6.900;2023-06-14T12:26:13;1.85;;;1.30;;
20095;SDS011;10207;50.942;6.900;2023-06-14T12:28:40;2.60;;;1.30;;
20095;SDS011;10207;50.942;6.900;2023-06-14T12:31:08;3.03;;;1.40;;
20095;SDS011;10207;50.942;6.900;2023-06-14T12:33:34;4.43;;;0.90;;
20095;SDS011;10207;50.942;6.900;2023-06-14T12:36:00;3.17;;;1.20;;
20095;SDS011;10207;50.942;6.900;2023-06-14T12:38:28;2.58;;;1.02;;
20095;SDS011;10207;50.942;6.900;2023-06-14T12:40:54;3.83;;;0.98;;
20095;SDS011;10207;50.942;6.900;2023-06-14T12:43:21;3.95;;;1.67;;
20095;SDS011;10207;50.942;6.900;2023-06-14T12:45:47;6.22;;;1.40;;
20095;SDS011;10207;50.942;6.900;2023-06-14T12:48:13;1.42;;;1.10;;
20095;SDS011;10207;50.942;6.900;2023-06-14T12:50:39;1.98;;;1.00;;
20095;SDS011;10207;50.942;6.900;2023-06-14T12:53:05;1.90;;;1.38;;
20095;SDS011;10207;50.942;6.900;2023-06-14T12:55:32;1.17;;;0.95;;
20095;SDS011;10207;50.942;6.900;2023-06-14T12:57:58;2.03;;;1.17;;
20095;SDS011;10207;50.942;6.900;2023-06-14T13:00:24;1.52;;;0.95;;
20095;SDS011;10207;50.942;6.900;2023-06-14T13:02:51;3.38;;;1.50;;
20095;SDS011;10207;50.942;6.900;2023-06-14T13:05:18;2.40;;;1.20;;
20095;SDS011;10207;50.942;6.900;2023-06-14T13:07:44;3.40;;;1.20;;
20095;SDS011;10207;50.942;6.900;2023-06-14T13:10:10;3.75;;;1.17;;
20095;SDS011;10207;50.942;6.900;2023-06-14T13:12:36;2.63;;;1.00;;
20095;SDS011;10207;50.942;6.900;2023-06-14T13:15:02;3.15;;;1.13;;
20095;SDS011;10207;50.942;6.900;2023-06-14T13:17:28;3.53;;;0.80;;
20095;SDS011;10207;50.942;6.900;2023-06-14T13:19:54;3.33;;;1.40;;
20095;SDS011;10207;50.942;6.900;2023-06-14T13:22:20;7.05;;;1.10;;
20095;SDS011;10207;50.942;6.900;2023-06-14T13:24:46;2.50;;;1.00;;
20095;SDS011;10207;50.942;6.900;2023-06-14T13:27:12;1.25;;;0.93;;
20095;SDS011;10207;50.942;6.900;2023-06-14T13:29:40;2.55;;;1.10;;
20095;SDS011;10207;50.942;6.900;2023-06-14T13:32:06;2.10;;;1.35;;
20095;SDS011;10207;50.942;6.900;2023-06-14T13:34:32;6.60;;;1.17;;
20095;SDS011;10207;50.942;6.900;2023-06-14T13:36:58;4.25;;;1.38;;
20095;SDS011;10207;50.942;6.900;2023-06-14T13:39:27;2.50;;;0.88;;
20095;SDS011;10207;50.942;6.900;2023-06-14T13:41:52;1.58;;;1.20;;
20095;SDS011;10207;50.942;6.900;2023-06-14T13:44:18;5.00;;;1.40;;
20095;SDS011;10207;50.942;6.900;2023-06-14T13:46:46;3.20;;;1.20;;
20095;SDS011;10207;50.942;6.900;2023-06-14T13:49:12;4.50;;;1.00;;
20095;SDS011;10207;50.942;6.900;2023-06-14T13:51:38;1.73;;;1.35;;
20095;SDS011;10207;50.942;6.900;2023-06-14T13:54:04;4.75;;;1.42;;
20095;SDS011;10207;50.942;6.900;2023-06-14T13:56:30;3.13;;;1.02;;
20095;SDS011;10207;50.942;6.900;2023-06-14T13:58:56;5.53;;;1.02;;
20095;SDS011;10207;50.942;6.900;2023-06-14T14:01:22;6.13;;;1.35;;
20095;SDS011;10207;50.942;6.900;2023-06-14T14:03:49;2.33;;;1.33;;
20095;SDS011;10207;50.942;6.900;2023-06-14T14:06:15;4.75;;;1.45;;
20095;SDS011;10207;50.942;6.900;2023-06-14T14:08:42;2.35;;;1.27;;
20095;SDS011;10207;50.942;6.900;2023-06-14T14:11:08;4.93;;;1.40;;
20095;SDS011;10207;50.942;6.900;2023-06-14T14:13:35;2.38;;;1.10;;
20095;SDS011;10207;50.942;6.900;2023-06-14T14:16:02;5.28;;;1.50;;
20095;SDS011;10207;50.942;6.900;2023-06-14T14:18:29;3.33;;;1.42;;
20095;SDS011;10207;50.942;6.900;2023-06-14T14:20:55;2.35;;;1.30;;
20095;SDS011;10207;50.942;6.900;2023-06-14T14:23:21;4.45;;;1.50;;
20095;SDS011;10207;50.942;6.900;2023-06-14T14:25:47;4.22;;;1.30;;
20095;SDS011;10207;50.942;6.900;2023-06-14T14:28:13;3.47;;;1.45;;
20095;SDS011;10207;50.942;6.900;2023-06-14T14:30:42;2.20;;;1.23;;
20095;SDS011;10207;50.942;6.900;2023-06-14T14:33:07;3.78;;;1.40;;
20095;SDS011;10207;50.942;6.900;2023-06-14T14:35:34;2.85;;;1.27;;
20095;SDS011;10207;50.942;6.900;2023-06-14T14:38:00;2.75;;;1.33;;
20095;SDS011;10207;50.942;6.900;2023-06-14T14:40:26;1.80;;;1.40;;
20095;SDS011;10207;50.942;6.900;2023-06-14T14:42:52;2.58;;;1.30;;
20095;SDS011;10207;50.942;6.900;2023-06-14T14:45:18;5.43;;;1.50;;
20095;SDS011;10207;50.942;6.900;2023-06-14T14:47:44;4.22;;;1.33;;
20095;SDS011;10207;50.942;6.900;2023-06-14T14:50:10;3.55;;;1.20;;
20095;SDS011;10207;50.942;6.900;2023-06-14T14:52:36;1.90;;;1.38;;
20095;SDS011;10207;50.942;6.900;2023-06-14T14:55:02;2.17;;;1.33;;
20095;SDS011;10207;50.942;6.900;2023-06-14T14:57:28;5.20;;;1.30;;